createdAt,value
2018-05-07T00:00:59.462Z,56.35
2018-05-07T00:02:05.218Z,56.47
2018-05-07T00:03:10.986Z,56.60
2018-05-07T00:04:17.557Z,56.72
2018-05-07T00:05:24.088Z,56.79
2018-05-07T00:06:30.614Z,56.95
2018-05-07T00:07:36.363Z,56.95
2018-05-07T00:08:43.452Z,56.92
2018-05-07T00:09:49.261Z,56.92
2018-05-07T00:10:55.083Z,57.03
2018-05-07T00:12:00.617Z,57.08
2018-05-07T00:13:06.379Z,57.13
2018-05-07T00:14:12.136Z,57.19
2018-05-07T00:15:17.932Z,57.31
2018-05-07T00:16:23.762Z,57.47
2018-05-07T00:17:30.276Z,57.52
2018-05-07T00:18:35.462Z,57.61
2018-05-07T00:19:41.243Z,57.82
2018-05-07T00:20:47.057Z,57.90
2018-05-07T00:21:52.818Z,57.87
2018-05-07T00:22:58.581Z,57.82
2018-05-07T00:24:04.581Z,57.73
2018-05-07T00:25:10.359Z,57.69
2018-05-07T00:26:16.149Z,57.63
2018-05-07T00:27:22.472Z,57.73
2018-05-07T00:28:28.244Z,57.76
2018-05-07T00:29:34.833Z,57.71
2018-05-07T00:30:40.746Z,57.75
2018-05-07T00:31:47.290Z,57.73
2018-05-07T00:32:53.075Z,57.77
2018-05-07T00:33:58.827Z,57.79
2018-05-07T00:35:04.285Z,57.76
2018-05-07T00:36:10.242Z,57.84
2018-05-07T00:37:16.020Z,57.92
2018-05-07T00:38:22.543Z,57.93
2018-05-07T00:39:28.074Z,58.00
2018-05-07T00:40:33.835Z,58.15
2018-05-07T00:41:39.620Z,58.22
2018-05-07T00:42:45.403Z,58.37
2018-05-07T00:43:51.185Z,58.38
2018-05-07T00:44:57.711Z,58.43
2018-05-07T00:46:03.514Z,58.58
2018-05-07T00:47:10.043Z,58.53
2018-05-07T00:48:16.604Z,58.61
2018-05-07T00:49:23.133Z,58.65
2018-05-07T00:50:28.902Z,58.78
2018-05-07T00:51:35.492Z,58.65
2018-05-07T00:52:41.247Z,58.56
2018-05-07T00:53:47.041Z,58.51
2018-05-07T00:55:10.509Z,58.46
2018-05-07T00:56:17.043Z,58.48
2018-05-07T00:57:22.803Z,58.38
2018-05-07T00:58:29.334Z,58.46
2018-05-07T00:59:35.126Z,58.39
2018-05-07T01:00:40.879Z,58.59
2018-05-07T01:01:46.419Z,58.58
2018-05-07T01:02:52.184Z,58.71
2018-05-07T01:03:57.945Z,58.63
2018-05-07T01:05:03.741Z,58.58
2018-05-07T01:06:09.507Z,58.56
2018-05-07T01:07:15.274Z,58.63
2018-05-07T01:08:21.820Z,58.76
2018-05-07T01:09:27.596Z,58.70
2018-05-07T01:10:34.176Z,58.76
2018-05-07T01:11:39.935Z,58.65
2018-05-07T01:12:45.781Z,58.67
2018-05-07T01:13:51.694Z,58.78
2018-05-07T01:14:57.489Z,58.83
2018-05-07T01:16:03.464Z,58.82
2018-05-07T01:17:09.224Z,58.69
2018-05-07T01:18:15.753Z,58.80
2018-05-07T01:19:21.509Z,58.82
2018-05-07T01:20:27.273Z,58.87
2018-05-07T01:21:33.826Z,58.98
2018-05-07T01:22:40.348Z,59.16
2018-05-07T01:23:46.109Z,59.19
2018-05-07T01:24:51.879Z,59.17
2018-05-07T01:25:58.176Z,59.42
2018-05-07T01:27:03.965Z,59.43
2018-05-07T01:28:10.491Z,59.59
2018-05-07T01:29:16.252Z,59.55
2018-05-07T01:30:22.036Z,59.59
2018-05-07T01:31:27.805Z,59.59
2018-05-07T01:32:33.625Z,59.56
2018-05-07T01:33:39.388Z,59.54
2018-05-07T01:34:45.146Z,59.56
2018-05-07T01:35:50.916Z,59.64
2018-05-07T01:36:57.453Z,59.65
2018-05-07T01:38:03.241Z,59.63
2018-05-07T01:39:09.016Z,59.57
2018-05-07T01:40:14.812Z,59.61
2018-05-07T01:41:20.572Z,59.60
2018-05-07T01:42:26.107Z,59.61
2018-05-07T01:43:31.907Z,59.66
2018-05-07T01:44:37.683Z,59.66
2018-05-07T01:45:43.449Z,59.70
2018-05-07T01:46:49.008Z,59.68
2018-05-07T01:47:54.771Z,59.75
2018-05-07T01:49:00.555Z,59.87
2018-05-07T01:50:06.319Z,59.87
2018-05-07T01:51:12.095Z,59.78
2018-05-07T01:52:17.844Z,59.84
2018-05-07T01:53:24.361Z,59.80
2018-05-07T01:54:30.140Z,59.80
2018-05-07T01:55:37.412Z,59.85
2018-05-07T01:56:43.171Z,59.93
2018-05-07T01:57:49.705Z,60.00
2018-05-07T01:58:55.454Z,60.00
2018-05-07T02:00:01.240Z,60.06
2018-05-07T02:01:06.995Z,60.11
2018-05-07T02:02:12.762Z,60.24
2018-05-07T02:03:18.520Z,60.29
2018-05-07T02:04:24.288Z,60.35
2018-05-07T02:05:30.100Z,60.23
2018-05-07T02:06:35.859Z,60.35
2018-05-07T02:07:41.634Z,60.39
2018-05-07T02:08:47.399Z,60.53
2018-05-07T02:09:53.163Z,60.56
2018-05-07T02:10:58.972Z,60.68
2018-05-07T02:12:04.743Z,60.69
2018-05-07T02:13:10.506Z,60.80
2018-05-07T02:14:16.267Z,60.79
2018-05-07T02:15:22.793Z,60.76
2018-05-07T02:16:28.567Z,60.73
2018-05-07T02:17:34.318Z,60.78
2018-05-07T02:18:40.083Z,60.85
2018-05-07T02:19:45.846Z,60.85
2018-05-07T02:20:51.624Z,60.86
2018-05-07T02:21:58.177Z,60.90
2018-05-07T02:23:04.123Z,60.91
2018-05-07T02:24:09.916Z,61.04
2018-05-07T02:25:15.667Z,61.12
2018-05-07T02:26:21.447Z,61.04
2018-05-07T02:27:27.228Z,61.01
2018-05-07T02:28:32.875Z,61.04
2018-05-07T02:29:38.623Z,61.00
2018-05-07T02:30:44.388Z,60.98
2018-05-07T02:31:50.155Z,60.96
2018-05-07T02:32:55.936Z,61.01
2018-05-07T02:34:01.703Z,61.00
2018-05-07T02:35:07.470Z,61.12
2018-05-07T02:36:13.007Z,61.22
2018-05-07T02:37:18.762Z,61.28
2018-05-07T02:38:25.303Z,61.40
2018-05-07T02:39:31.070Z,61.42
2018-05-07T02:40:37.591Z,61.63
2018-05-07T02:41:43.366Z,61.63
2018-05-07T02:42:49.895Z,61.66
2018-05-07T02:43:55.675Z,61.72
2018-05-07T02:45:01.428Z,61.68
2018-05-07T02:46:07.190Z,61.73
2018-05-07T02:47:12.954Z,61.85
2018-05-07T02:48:18.840Z,61.88
2018-05-07T02:49:25.410Z,61.93
2018-05-07T02:50:31.937Z,62.09
2018-05-07T02:51:37.695Z,62.15
2018-05-07T02:52:44.223Z,62.31
2018-05-07T02:53:50.891Z,62.36
2018-05-07T02:54:56.681Z,62.40
2018-05-07T02:56:02.448Z,62.40
2018-05-07T02:57:07.871Z,62.53
2018-05-07T02:58:13.645Z,62.55
2018-05-07T02:59:19.398Z,62.77
2018-05-07T03:00:25.181Z,62.64
2018-05-07T03:01:30.940Z,62.63
2018-05-07T03:02:36.729Z,62.62
2018-05-07T03:03:42.475Z,62.61
2018-05-07T03:04:48.239Z,62.72
2018-05-07T03:05:54.792Z,62.75
2018-05-07T03:07:01.322Z,62.76
2018-05-07T03:08:07.091Z,62.77
2018-05-07T03:09:13.621Z,62.87
2018-05-07T03:10:19.383Z,62.86
2018-05-07T03:11:25.159Z,62.85
2018-05-07T03:12:30.939Z,62.89
2018-05-07T03:13:36.892Z,62.92
2018-05-07T03:14:43.424Z,62.96
2018-05-07T03:15:49.178Z,62.98
2018-05-07T03:16:54.959Z,63.09
2018-05-07T03:18:00.728Z,63.07
2018-05-07T03:19:06.522Z,63.23
2018-05-07T03:20:12.279Z,63.23
2018-05-07T03:21:18.040Z,63.32
2018-05-07T03:22:24.585Z,63.47
2018-05-07T03:23:31.131Z,63.58
2018-05-07T03:24:36.888Z,63.71
2018-05-07T03:25:42.643Z,63.71
2018-05-07T03:26:48.834Z,63.78
2018-05-07T03:27:54.635Z,63.69
2018-05-07T03:29:01.147Z,63.70
2018-05-07T03:30:06.911Z,63.69
2018-05-07T03:31:12.663Z,63.63
2018-05-07T03:32:18.427Z,63.62
2018-05-07T03:33:24.995Z,63.55
2018-05-07T03:34:31.557Z,63.60
2018-05-07T03:35:37.308Z,63.61
2018-05-07T03:36:43.062Z,63.65
2018-05-07T03:37:48.826Z,63.72
2018-05-07T03:38:54.714Z,63.73
2018-05-07T03:40:01.246Z,63.65
2018-05-07T03:41:07.004Z,63.68
2018-05-07T03:42:13.523Z,63.66
2018-05-07T03:43:20.047Z,63.63
2018-05-07T03:44:25.824Z,63.63
2018-05-07T03:45:31.587Z,63.74
2018-05-07T03:46:37.888Z,63.62
2018-05-07T03:47:43.651Z,63.62
2018-05-07T03:48:49.409Z,63.66
2018-05-07T03:49:55.189Z,63.71
2018-05-07T03:51:01.484Z,63.69
2018-05-07T03:52:07.256Z,63.62
2018-05-07T03:53:13.051Z,63.81
2018-05-07T03:54:18.803Z,63.75
2018-05-07T03:55:24.598Z,63.91
2018-05-07T03:56:31.122Z,63.91
2018-05-07T03:57:36.879Z,63.96
2018-05-07T03:58:42.644Z,63.84
2018-05-07T03:59:49.210Z,63.95
2018-05-07T04:00:55.176Z,63.85
2018-05-07T04:02:00.650Z,63.83
2018-05-07T04:03:06.407Z,63.79
2018-05-07T04:04:12.177Z,63.72
2018-05-07T04:05:18.700Z,63.77
2018-05-07T04:06:24.475Z,63.85
2018-05-07T04:07:30.132Z,63.94
2018-05-07T04:08:36.663Z,63.86
2018-05-07T04:09:42.427Z,63.75
2018-05-07T04:10:48.965Z,63.61
2018-05-07T04:11:54.738Z,63.63
2018-05-07T04:13:01.034Z,63.64
2018-05-07T04:14:06.798Z,63.58
2018-05-07T04:15:12.564Z,63.59
2018-05-07T04:16:36.080Z,63.60
2018-05-07T04:17:58.854Z,63.43
2018-05-07T04:19:22.384Z,63.38
2018-05-07T04:20:44.996Z,63.45
2018-05-07T04:22:07.653Z,63.60
2018-05-07T04:23:30.204Z,63.68
2018-05-07T04:24:36.151Z,63.85
2018-05-07T04:25:41.913Z,63.83
2018-05-07T04:26:48.439Z,63.77
2018-05-07T04:27:54.344Z,63.70
2018-05-07T04:29:00.236Z,63.79
2018-05-07T04:30:05.110Z,63.69
2018-05-07T04:31:10.897Z,63.66
2018-05-07T04:32:16.680Z,63.55
2018-05-07T04:33:23.308Z,63.45
2018-05-07T04:34:29.100Z,63.43
2018-05-07T04:35:34.857Z,63.31
2018-05-07T04:36:40.395Z,63.22
2018-05-07T04:37:46.154Z,63.16
2018-05-07T04:38:51.952Z,63.09
2018-05-07T04:39:58.524Z,63.09
2018-05-07T04:41:04.307Z,63.00
2018-05-07T04:42:10.083Z,62.95
2018-05-07T04:43:16.644Z,62.87
2018-05-07T04:44:22.586Z,62.83
2018-05-07T04:45:29.147Z,62.75
2018-05-07T04:46:35.701Z,62.77
2018-05-07T04:47:41.451Z,62.73
2018-05-07T04:48:47.992Z,62.75
2018-05-07T04:49:53.959Z,62.79
2018-05-07T04:51:00.509Z,62.59
2018-05-07T04:52:07.035Z,62.59
2018-05-07T04:53:13.053Z,62.37
2018-05-07T04:54:20.151Z,62.28
2018-05-07T04:55:25.919Z,62.25
2018-05-07T04:56:31.711Z,62.25
2018-05-07T04:57:37.477Z,62.28
2018-05-07T04:58:43.002Z,62.26
2018-05-07T04:59:48.760Z,62.16
2018-05-07T05:00:54.532Z,62.27
2018-05-07T05:02:00.105Z,62.25
2018-05-07T05:03:05.863Z,62.18
2018-05-07T05:04:11.635Z,62.19
2018-05-07T05:05:17.388Z,62.14
2018-05-07T05:06:23.903Z,62.13
2018-05-07T05:07:29.682Z,62.09
2018-05-07T05:08:35.434Z,61.95
2018-05-07T05:09:41.967Z,61.86
2018-05-07T05:10:47.725Z,61.72
2018-05-07T05:11:53.492Z,61.71
2018-05-07T05:13:00.027Z,61.86
2018-05-07T05:14:05.795Z,61.72
2018-05-07T05:15:12.366Z,61.70
2018-05-07T05:16:18.890Z,61.61
2018-05-07T05:17:24.651Z,61.61
2018-05-07T05:18:31.289Z,61.50
2018-05-07T05:19:37.144Z,61.46
2018-05-07T05:20:42.927Z,61.43
2018-05-07T05:21:48.699Z,61.25
2018-05-07T05:22:54.296Z,61.15
2018-05-07T05:24:00.262Z,61.12
2018-05-07T05:25:06.020Z,61.02
2018-05-07T05:26:11.775Z,60.96
2018-05-07T05:27:20.446Z,60.86
2018-05-07T05:28:26.403Z,60.80
2018-05-07T05:29:32.196Z,60.76
2018-05-07T05:30:37.622Z,60.77
2018-05-07T05:31:43.150Z,60.45
2018-05-07T05:32:48.897Z,60.33
2018-05-07T05:33:54.657Z,60.28
2018-05-07T05:35:01.236Z,60.13
2018-05-07T05:36:07.752Z,60.17
2018-05-07T05:37:13.561Z,60.22
2018-05-07T05:38:19.708Z,60.01
2018-05-07T05:39:25.525Z,59.84
2018-05-07T05:40:31.473Z,59.89
2018-05-07T05:41:36.946Z,59.84
2018-05-07T05:42:42.711Z,59.70
2018-05-07T05:43:48.566Z,59.73
2018-05-07T05:44:54.443Z,59.77
2018-05-07T05:46:00.996Z,59.81
2018-05-07T05:47:07.560Z,59.77
2018-05-07T05:48:13.335Z,59.70
2018-05-07T05:49:19.094Z,59.68
2018-05-07T05:50:24.846Z,59.77
2018-05-07T05:51:30.618Z,59.71
2018-05-07T05:52:36.381Z,59.57
2018-05-07T05:53:42.144Z,59.47
2018-05-07T05:54:47.658Z,59.37
2018-05-07T05:55:53.423Z,59.31
2018-05-07T05:56:59.544Z,59.14
2018-05-07T05:58:05.315Z,59.15
2018-05-07T05:59:11.084Z,59.03
2018-05-07T06:00:16.834Z,59.09
2018-05-07T06:01:22.579Z,58.89
2018-05-07T06:02:29.123Z,58.62
2018-05-07T06:03:34.912Z,58.34
2018-05-07T06:04:40.671Z,58.20
2018-05-07T06:05:46.429Z,57.97
2018-05-07T06:06:52.183Z,57.88
2018-05-07T06:07:57.963Z,57.72
2018-05-07T06:09:03.779Z,57.58
2018-05-07T06:10:09.500Z,57.50
2018-05-07T06:11:15.239Z,57.48
2018-05-07T06:12:21.025Z,57.48
2018-05-07T06:13:27.556Z,57.41
2018-05-07T06:14:33.403Z,57.41
2018-05-07T06:15:39.281Z,57.43
2018-05-07T06:16:45.792Z,57.31
2018-05-07T06:17:51.592Z,57.17
2018-05-07T06:18:57.362Z,57.09
2018-05-07T06:20:03.125Z,56.94
2018-05-07T06:21:08.912Z,56.59
2018-05-07T06:22:15.430Z,56.12
2018-05-07T06:23:21.189Z,55.40
2018-05-07T06:24:26.975Z,54.03
2018-05-07T06:25:32.735Z,52.51
2018-05-07T06:26:38.491Z,50.89
2018-05-07T06:27:44.241Z,49.12
2018-05-07T06:28:51.514Z,47.55
2018-05-07T06:29:57.334Z,45.94
2018-05-07T06:31:02.879Z,44.47
2018-05-07T06:32:08.685Z,43.28
2018-05-07T06:33:14.497Z,41.80
2018-05-07T06:34:20.324Z,40.85
2018-05-07T06:35:26.264Z,39.33
2018-05-07T06:36:32.011Z,38.37
2018-05-07T06:37:37.770Z,37.47
2018-05-07T06:38:44.525Z,36.60
2018-05-07T06:39:50.275Z,35.72
2018-05-07T06:40:56.072Z,34.98
2018-05-07T06:42:01.831Z,34.29
2018-05-07T06:43:07.607Z,33.53
2018-05-07T06:44:13.368Z,33.17
2018-05-07T06:45:19.881Z,33.35
2018-05-07T06:46:25.880Z,32.79
2018-05-07T06:47:31.844Z,32.22
2018-05-07T06:48:37.607Z,31.69
2018-05-07T06:49:43.562Z,31.43
2018-05-07T06:50:49.334Z,30.67
2018-05-07T06:51:55.127Z,29.79
2018-05-07T06:53:00.938Z,29.57
2018-05-07T06:54:06.696Z,29.43
2018-05-07T06:55:12.459Z,28.97
2018-05-07T06:56:18.257Z,28.67
2018-05-07T06:57:24.795Z,28.42
2018-05-07T06:58:30.322Z,28.22
2018-05-07T06:59:36.102Z,27.79
2018-05-07T07:00:42.393Z,27.18
2018-05-07T07:01:48.252Z,26.71
2018-05-07T07:02:54.149Z,26.25
2018-05-07T07:04:00.762Z,25.56
2018-05-07T07:05:06.528Z,25.41
2018-05-07T07:06:12.275Z,25.05
2018-05-07T07:07:18.465Z,25.23
2018-05-07T07:08:24.517Z,25.11
2018-05-07T07:09:30.295Z,24.75
2018-05-07T07:10:36.044Z,24.18
2018-05-07T07:11:42.789Z,23.97
2018-05-07T07:12:48.536Z,23.80
2018-05-07T07:13:54.311Z,23.60
2018-05-07T07:15:00.826Z,23.98
2018-05-07T07:16:06.720Z,24.12
2018-05-07T07:17:13.240Z,24.05
2018-05-07T07:18:19.005Z,24.15
2018-05-07T07:19:25.329Z,24.64
2018-05-07T07:20:31.123Z,24.79
2018-05-07T07:21:37.636Z,24.60
2018-05-07T07:22:43.395Z,24.25
2018-05-07T07:23:49.928Z,23.91
2018-05-07T07:24:55.706Z,23.78
2018-05-07T07:26:02.228Z,23.32
2018-05-07T07:27:08.008Z,23.20
2018-05-07T07:28:14.602Z,23.17
2018-05-07T07:29:20.480Z,23.26
2018-05-07T07:30:27.026Z,22.98
2018-05-07T07:31:32.914Z,23.04
2018-05-07T07:32:38.646Z,23.59
2018-05-07T07:33:44.494Z,23.56
2018-05-07T07:34:51.132Z,23.92
2018-05-07T07:35:56.904Z,24.10
2018-05-07T07:37:03.520Z,23.70
2018-05-07T07:38:09.270Z,23.47
2018-05-07T07:39:15.041Z,23.32
2018-05-07T07:40:21.559Z,23.45
2018-05-07T07:41:27.343Z,23.50
2018-05-07T07:42:32.803Z,23.48
2018-05-07T07:43:38.568Z,23.48
2018-05-07T07:44:44.321Z,23.34
2018-05-07T07:45:50.436Z,23.14
2018-05-07T07:46:56.213Z,23.07
2018-05-07T07:48:01.973Z,23.16
2018-05-07T07:49:07.719Z,22.96
2018-05-07T07:50:13.483Z,23.16
2018-05-07T07:51:20.003Z,23.27
2018-05-07T07:52:25.783Z,23.04
2018-05-07T07:53:31.582Z,22.89
2018-05-07T07:54:38.263Z,22.52
2018-05-07T07:55:44.035Z,22.36
2018-05-07T07:56:50.555Z,22.11
2018-05-07T07:57:56.338Z,21.88
2018-05-07T07:59:02.851Z,21.68
2018-05-07T08:00:08.626Z,21.46
2018-05-07T08:01:15.153Z,21.45
2018-05-07T08:02:20.920Z,21.83
2018-05-07T08:03:26.690Z,21.65
2018-05-07T08:04:33.211Z,21.56
2018-05-07T08:05:38.960Z,21.46
2018-05-07T08:06:44.706Z,21.16
2018-05-07T08:07:50.282Z,21.02
2018-05-07T08:08:56.050Z,20.87
2018-05-07T08:10:01.802Z,20.39
2018-05-07T08:11:07.320Z,20.14
2018-05-07T08:12:13.089Z,20.34
2018-05-07T08:13:19.031Z,20.14
2018-05-07T08:14:24.818Z,20.30
2018-05-07T08:15:31.366Z,20.15
2018-05-07T08:16:37.914Z,20.47
2018-05-07T08:17:44.436Z,20.12
2018-05-07T08:18:50.250Z,19.71
2018-05-07T08:19:56.099Z,19.77
2018-05-07T08:21:01.840Z,19.83
2018-05-07T08:22:07.599Z,19.74
2018-05-07T08:23:13.381Z,19.47
2018-05-07T08:24:19.127Z,19.38
2018-05-07T08:25:24.916Z,19.26
2018-05-07T08:26:30.676Z,19.17
2018-05-07T08:27:36.428Z,19.06
2018-05-07T08:28:42.195Z,19.23
2018-05-07T08:29:49.461Z,19.63
2018-05-07T08:30:55.245Z,19.76
2018-05-07T08:32:01.004Z,19.61
2018-05-07T08:33:06.762Z,19.18
2018-05-07T08:34:12.552Z,18.98
2018-05-07T08:35:18.847Z,18.76
2018-05-07T08:36:24.629Z,19.52
2018-05-07T08:37:31.163Z,19.99
2018-05-07T08:38:36.915Z,20.12
2018-05-07T08:39:42.675Z,20.23
2018-05-07T08:40:48.432Z,19.79
2018-05-07T08:41:55.024Z,19.57
2018-05-07T08:43:00.787Z,19.64
2018-05-07T08:44:06.204Z,19.39
2018-05-07T08:45:11.968Z,19.33
2018-05-07T08:46:17.727Z,19.42
2018-05-07T08:47:23.504Z,19.57
2018-05-07T08:48:30.027Z,20.23
2018-05-07T08:49:35.770Z,20.51
2018-05-07T08:50:41.514Z,20.34
2018-05-07T08:51:48.040Z,20.54
2018-05-07T08:52:53.906Z,20.43
2018-05-07T08:53:59.784Z,20.32
2018-05-07T08:55:06.314Z,20.00
2018-05-07T08:56:12.063Z,20.40
2018-05-07T08:57:17.825Z,20.43
2018-05-07T08:58:24.367Z,20.31
2018-05-07T08:59:30.131Z,20.06
2018-05-07T09:00:36.705Z,19.91
2018-05-07T09:01:42.609Z,20.08
2018-05-07T09:02:48.368Z,20.08
2018-05-07T09:03:54.727Z,20.17
2018-05-07T09:05:00.514Z,20.35
2018-05-07T09:06:06.266Z,20.40
2018-05-07T09:07:12.011Z,20.38
2018-05-07T09:08:17.771Z,20.12
2018-05-07T09:09:23.543Z,19.72
2018-05-07T09:10:29.840Z,19.66
2018-05-07T09:11:35.582Z,19.38
2018-05-07T09:12:41.331Z,19.27
2018-05-07T09:13:47.094Z,19.60
2018-05-07T09:14:52.551Z,19.85
2018-05-07T09:15:59.072Z,19.89
2018-05-07T09:17:04.600Z,19.77
2018-05-07T09:18:10.359Z,19.53
2018-05-07T09:19:16.884Z,19.46
2018-05-07T09:20:22.667Z,19.27
2018-05-07T09:21:28.421Z,19.34
2018-05-07T09:22:34.951Z,19.46
2018-05-07T09:23:40.720Z,19.28
2018-05-07T09:24:46.487Z,19.27
2018-05-07T09:25:53.239Z,19.42
2018-05-07T09:26:58.996Z,19.18
2018-05-07T09:28:04.763Z,18.98
2018-05-07T09:29:10.509Z,19.04
2018-05-07T09:30:16.324Z,19.21
2018-05-07T09:31:22.106Z,19.17
2018-05-07T09:32:27.861Z,19.09
2018-05-07T09:33:33.620Z,19.22
2018-05-07T09:34:39.380Z,18.93
2018-05-07T09:35:45.952Z,18.92
2018-05-07T09:36:51.715Z,19.02
2018-05-07T09:37:57.483Z,19.13
2018-05-07T09:39:03.001Z,19.25
2018-05-07T09:40:08.791Z,19.36
2018-05-07T09:41:15.318Z,19.44
2018-05-07T09:42:21.107Z,19.66
2018-05-07T09:43:27.634Z,19.59
2018-05-07T09:44:34.892Z,19.87
2018-05-07T09:45:40.645Z,19.57
2018-05-07T09:46:46.404Z,19.28
2018-05-07T09:47:52.185Z,18.97
2018-05-07T09:48:58.594Z,18.94
2018-05-07T09:50:03.979Z,19.19
2018-05-07T09:51:10.012Z,19.79
2018-05-07T09:52:15.774Z,20.17
2018-05-07T09:53:21.340Z,20.79
2018-05-07T09:54:27.107Z,21.25
2018-05-07T09:55:33.632Z,21.32
2018-05-07T09:56:56.514Z,21.53
2018-05-07T09:58:05.041Z,20.72
2018-05-07T09:59:10.800Z,20.15
2018-05-07T10:00:16.326Z,20.06
2018-05-07T10:01:22.102Z,20.37
2018-05-07T10:02:27.939Z,20.78
2018-05-07T10:03:33.851Z,20.30
2018-05-07T10:04:39.652Z,19.97
2018-05-07T10:05:46.916Z,19.84
2018-05-07T10:06:52.687Z,19.61
2018-05-07T10:07:59.212Z,19.78
2018-05-07T10:09:03.866Z,19.73
2018-05-07T10:10:10.390Z,19.82
2018-05-07T10:11:16.153Z,19.99
2018-05-07T10:12:21.983Z,20.27
2018-05-07T10:13:27.748Z,20.67
2018-05-07T10:14:33.549Z,20.96
2018-05-07T10:15:39.299Z,20.97
2018-05-07T10:16:45.075Z,20.94
2018-05-07T10:17:51.597Z,20.74
2018-05-07T10:18:58.124Z,20.88
2018-05-07T10:20:03.909Z,20.94
2018-05-07T10:21:09.680Z,21.12
2018-05-07T10:22:15.445Z,21.37
2018-05-07T10:23:21.235Z,21.49
2018-05-07T10:24:26.992Z,21.56
2018-05-07T10:25:32.784Z,21.69
2018-05-07T10:26:38.532Z,22.09
2018-05-07T10:27:44.321Z,22.50
2018-05-07T10:28:50.078Z,22.82
2018-05-07T10:29:56.649Z,22.77
2018-05-07T10:31:02.372Z,23.09
2018-05-07T10:32:08.904Z,23.30
2018-05-07T10:33:14.675Z,23.22
2018-05-07T10:34:21.224Z,23.43
2018-05-07T10:35:26.986Z,24.15
2018-05-07T10:36:33.535Z,24.68
2018-05-07T10:37:40.068Z,25.04
2018-05-07T10:38:45.848Z,25.42
2018-05-07T10:39:52.363Z,25.80
2018-05-07T10:40:58.123Z,26.01
2018-05-07T10:42:03.903Z,26.03
2018-05-07T10:43:09.651Z,26.13
2018-05-07T10:44:15.411Z,26.29
2018-05-07T10:45:21.167Z,26.80
2018-05-07T10:46:26.936Z,27.76
2018-05-07T10:47:32.487Z,28.31
2018-05-07T10:48:38.999Z,29.08
2018-05-07T10:49:44.790Z,29.59
2018-05-07T10:50:51.307Z,29.86
2018-05-07T10:51:57.071Z,30.36
2018-05-07T10:53:02.952Z,30.92
2018-05-07T10:54:09.479Z,31.49
2018-05-07T10:55:15.247Z,31.65
2018-05-07T10:56:21.767Z,31.64
2018-05-07T10:57:27.542Z,31.83
2018-05-07T10:58:34.098Z,32.02
2018-05-07T10:59:40.627Z,32.12
2018-05-07T11:00:46.391Z,32.30
2018-05-07T11:01:52.200Z,32.30
2018-05-07T11:02:57.959Z,32.37
2018-05-07T11:04:03.735Z,32.38
2018-05-07T11:05:10.258Z,32.21
2018-05-07T11:06:16.016Z,32.49
2018-05-07T11:07:21.873Z,32.69
2018-05-07T11:08:27.800Z,32.94
2018-05-07T11:09:33.367Z,32.90
2018-05-07T11:10:39.887Z,32.31
2018-05-07T11:11:46.408Z,32.22
2018-05-07T11:12:52.171Z,32.30
2018-05-07T11:13:57.929Z,32.39
2018-05-07T11:15:03.477Z,32.24
2018-05-07T11:16:09.237Z,32.20
2018-05-07T11:17:15.771Z,32.42
2018-05-07T11:18:21.523Z,32.68
2018-05-07T11:19:27.285Z,32.78
2018-05-07T11:20:33.848Z,32.70
2018-05-07T11:21:40.368Z,32.31
2018-05-07T11:22:46.129Z,32.02
2018-05-07T11:23:52.666Z,32.02
2018-05-07T11:24:58.444Z,31.83
2018-05-07T11:26:04.984Z,31.89
2018-05-07T11:27:10.540Z,32.19
2018-05-07T11:28:16.483Z,32.17
2018-05-07T11:29:23.031Z,32.25
2018-05-07T11:30:28.801Z,31.95
2018-05-07T11:31:34.607Z,32.07
2018-05-07T11:32:40.377Z,32.22
2018-05-07T11:33:46.912Z,32.44
2018-05-07T11:34:52.732Z,32.42
2018-05-07T11:35:58.259Z,32.21
2018-05-07T11:37:04.052Z,32.23
2018-05-07T11:38:10.595Z,32.38
2018-05-07T11:39:17.128Z,32.42
2018-05-07T11:40:22.906Z,32.22
2018-05-07T11:41:28.666Z,32.14
2018-05-07T11:42:35.218Z,32.02
2018-05-07T11:43:41.186Z,32.07
2018-05-07T11:44:46.962Z,32.21
2018-05-07T11:45:52.741Z,32.42
2018-05-07T11:46:59.272Z,32.49
2018-05-07T11:48:05.076Z,32.46
2018-05-07T11:49:10.848Z,32.55
2018-05-07T11:50:16.624Z,32.65
2018-05-07T11:51:22.404Z,32.75
2018-05-07T11:52:28.175Z,32.66
2018-05-07T11:53:33.960Z,32.67
2018-05-07T11:54:40.535Z,32.67
2018-05-07T11:55:46.292Z,32.45
2018-05-07T11:56:51.829Z,31.95
2018-05-07T11:57:57.586Z,31.31
2018-05-07T11:59:03.367Z,31.07
2018-05-07T12:00:09.915Z,31.15
2018-05-07T12:01:15.723Z,31.36
2018-05-07T12:02:21.549Z,31.79
2018-05-07T12:03:27.478Z,31.88
2018-05-07T12:04:34.038Z,32.58
2018-05-07T12:05:40.560Z,32.77
2018-05-07T12:06:46.328Z,32.78
2018-05-07T12:07:52.877Z,32.71
2018-05-07T12:08:59.508Z,32.77
2018-05-07T12:10:06.211Z,32.67
2018-05-07T12:11:12.740Z,32.80
2018-05-07T12:12:18.503Z,32.92
2018-05-07T12:13:25.780Z,32.91
2018-05-07T12:14:31.540Z,32.89
2018-05-07T12:15:38.089Z,32.97
2018-05-07T12:16:44.279Z,32.92
2018-05-07T12:17:50.083Z,32.95
2018-05-07T12:18:55.856Z,32.97
2018-05-07T12:20:01.625Z,32.86
2018-05-07T12:21:07.172Z,32.85
2018-05-07T12:22:12.956Z,32.55
2018-05-07T12:23:18.781Z,32.25
2018-05-07T12:24:24.700Z,31.83
2018-05-07T12:25:30.464Z,31.82
2018-05-07T12:26:36.483Z,31.75
2018-05-07T12:27:42.253Z,31.71
2018-05-07T12:28:48.015Z,31.97
2018-05-07T12:29:54.536Z,32.13
2018-05-07T12:31:00.306Z,32.18
2018-05-07T12:32:05.860Z,32.18
2018-05-07T12:33:12.380Z,32.23
2018-05-07T12:34:18.170Z,32.33
2018-05-07T12:35:23.927Z,32.43
2018-05-07T12:36:29.687Z,32.46
2018-05-07T12:37:35.553Z,32.72
2018-05-07T12:38:42.369Z,32.86
2018-05-07T12:39:48.126Z,32.94
2018-05-07T12:40:53.878Z,32.90
2018-05-07T12:41:59.647Z,32.82
2018-05-07T12:43:06.196Z,32.55
2018-05-07T12:44:11.964Z,31.78
2018-05-07T12:45:17.724Z,31.32
2018-05-07T12:46:24.094Z,31.50
2018-05-07T12:47:29.853Z,31.78
2018-05-07T12:48:35.843Z,31.76
2018-05-07T12:49:41.608Z,31.64
2018-05-07T12:50:48.179Z,31.63
2018-05-07T12:51:53.927Z,31.73
2018-05-07T12:52:59.716Z,31.72
2018-05-07T12:54:06.277Z,31.39
2018-05-07T12:55:12.027Z,30.52
2018-05-07T12:56:17.803Z,30.49
2018-05-07T12:57:23.568Z,30.74
2018-05-07T12:58:29.336Z,30.97
2018-05-07T12:59:35.136Z,31.15
2018-05-07T13:00:40.886Z,31.26
2018-05-07T13:01:46.655Z,31.33
2018-05-07T13:02:52.450Z,31.36
2018-05-07T13:03:58.983Z,30.77
2018-05-07T13:05:04.769Z,30.66
2018-05-07T13:06:10.305Z,30.78
2018-05-07T13:07:18.973Z,30.76
2018-05-07T13:08:24.510Z,30.68
2018-05-07T13:09:30.281Z,30.58
2018-05-07T13:10:36.101Z,30.52
2018-05-07T13:11:41.878Z,30.62
2018-05-07T13:12:47.651Z,30.59
2018-05-07T13:13:53.444Z,30.54
2018-05-07T13:14:59.985Z,30.68
2018-05-07T13:16:05.444Z,30.78
2018-05-07T13:17:11.991Z,30.54
2018-05-07T13:18:18.723Z,30.10
2018-05-07T13:19:24.525Z,29.78
2018-05-07T13:20:30.292Z,29.73
2018-05-07T13:21:36.093Z,29.46
2018-05-07T13:22:42.635Z,29.28
2018-05-07T13:23:49.153Z,28.97
2018-05-07T13:24:54.975Z,29.12
2018-05-07T13:26:00.883Z,28.97
2018-05-07T13:27:07.447Z,29.09
2018-05-07T13:28:13.980Z,29.36
2018-05-07T13:29:19.743Z,29.12
2018-05-07T13:30:26.276Z,28.93
2018-05-07T13:31:32.050Z,29.00
2018-05-07T13:32:38.602Z,28.90
2018-05-07T13:33:45.136Z,28.76
2018-05-07T13:34:50.904Z,28.79
2018-05-07T13:35:57.211Z,28.60
2018-05-07T13:37:02.998Z,28.55
2018-05-07T13:38:08.783Z,28.57
2018-05-07T13:39:14.592Z,28.61
2018-05-07T13:40:20.796Z,28.50
2018-05-07T13:41:26.243Z,28.53
2018-05-07T13:42:32.003Z,28.62
2018-05-07T13:43:37.799Z,28.68
2018-05-07T13:44:43.595Z,28.65
2018-05-07T13:45:50.864Z,28.71
2018-05-07T13:46:56.631Z,28.75
2018-05-07T13:48:03.163Z,28.81
2018-05-07T13:49:08.943Z,28.67
2018-05-07T13:50:14.707Z,28.55
2018-05-07T13:51:20.475Z,28.61
2018-05-07T13:52:26.247Z,28.74
2018-05-07T13:53:33.579Z,28.81
2018-05-07T13:54:39.357Z,28.94
2018-05-07T13:55:45.111Z,28.94
2018-05-07T13:56:51.914Z,28.89
2018-05-07T13:57:57.899Z,28.84
2018-05-07T13:59:03.426Z,28.78
2018-05-07T14:00:09.209Z,28.79
2018-05-07T14:01:15.748Z,28.89
2018-05-07T14:02:21.527Z,28.88
2018-05-07T14:03:27.277Z,28.87
2018-05-07T14:04:33.059Z,28.90
2018-05-07T14:05:38.840Z,28.86
2018-05-07T14:06:45.374Z,28.85
2018-05-07T14:07:51.136Z,28.77
2018-05-07T14:08:57.661Z,28.67
2018-05-07T14:10:03.423Z,28.69
2018-05-07T14:11:09.209Z,28.50
2018-05-07T14:12:14.980Z,28.49